createdAt,value
2022-12-23T00:00:58.314Z,9.33
2022-12-23T00:03:25.944Z,9.32
2022-12-23T00:05:53.348Z,9.33
2022-12-23T00:08:21.554Z,9.33
2022-12-23T00:10:50.661Z,9.34
2022-12-23T00:13:36.376Z,9.34
2022-12-23T00:16:08.358Z,9.34
2022-12-23T00:18:37.017Z,9.35
2022-12-23T00:21:11.928Z,9.35
2022-12-23T00:23:41.496Z,9.34
2022-12-23T00:26:16.197Z,9.34
2022-12-23T00:28:42.823Z,9.34
2022-12-23T00:31:10.747Z,9.33
2022-12-23T00:33:40.137Z,9.34
2022-12-23T00:36:25.198Z,9.34
2022-12-23T00:39:10.791Z,9.33
2022-12-23T00:41:56.828Z,9.32
2022-12-23T00:44:23.809Z,9.32
2022-12-23T00:46:50.928Z,9.31
2022-12-23T00:49:37.902Z,9.29
2022-12-23T00:52:06.812Z,9.27
2022-12-23T00:54:34.244Z,9.26
2022-12-23T00:57:01.313Z,9.25
2022-12-23T00:59:27.888Z,9.23
2022-12-23T01:02:13.408Z,9.21
2022-12-23T01:04:58.597Z,9.21
2022-12-23T01:07:25.675Z,9.20
2022-12-23T01:09:55.173Z,9.19
2022-12-23T01:12:22.199Z,9.16
2022-12-23T01:14:49.535Z,9.15
2022-12-23T01:17:20.385Z,9.16
2022-12-23T01:19:47.480Z,9.14
2022-12-23T01:22:16.670Z,9.14
2022-12-23T01:24:43.883Z,9.12
2022-12-23T01:27:10.719Z,9.12
2022-12-23T01:29:37.261Z,9.11
2022-12-23T01:32:04.656Z,9.11
2022-12-23T01:34:37.153Z,9.11
2022-12-23T01:37:04.752Z,9.10
2022-12-23T01:39:31.890Z,9.09
2022-12-23T01:42:19.836Z,9.09
2022-12-23T01:45:03.088Z,9.08
2022-12-23T01:48:10.052Z,9.08
2022-12-23T01:50:48.687Z,9.06
2022-12-23T01:53:21.477Z,9.07
2022-12-23T01:55:50.724Z,9.06
2022-12-23T01:58:23.621Z,9.06
2022-12-23T02:01:08.504Z,9.06
2022-12-23T02:03:42.834Z,9.05
2022-12-23T02:06:36.829Z,9.04
2022-12-23T02:09:17.466Z,9.03
2022-12-23T02:12:09.191Z,9.01
2022-12-23T02:15:08.164Z,9.00
2022-12-23T02:17:49.700Z,8.98
2022-12-23T02:20:37.992Z,8.97
2022-12-23T02:23:45.890Z,8.96
2022-12-23T02:26:50.259Z,8.94
2022-12-23T02:29:44.685Z,8.94
2022-12-23T02:32:16.065Z,8.93
2022-12-23T02:35:10.535Z,8.91
2022-12-23T02:37:50.778Z,8.91
2022-12-23T02:40:35.151Z,8.89
2022-12-23T02:43:13.862Z,8.86
2022-12-23T02:45:47.897Z,8.83
2022-12-23T02:48:25.924Z,8.81
2022-12-23T02:50:58.792Z,8.79
2022-12-23T02:53:32.295Z,8.77
2022-12-23T02:56:04.095Z,8.76
2022-12-23T02:58:37.864Z,8.75
2022-12-23T03:01:08.251Z,8.73
2022-12-23T03:03:37.561Z,8.71
2022-12-23T03:06:17.657Z,8.71
2022-12-23T03:08:46.142Z,8.66
2022-12-23T03:11:16.051Z,8.65
2022-12-23T03:14:21.599Z,8.65
2022-12-23T03:16:53.153Z,8.64
2022-12-23T03:19:51.211Z,8.64
2022-12-23T03:22:33.360Z,8.61
2022-12-23T03:25:18.348Z,8.59
2022-12-23T03:27:52.880Z,8.57
2022-12-23T03:30:26.328Z,8.54
2022-12-23T03:32:57.227Z,8.50
2022-12-23T03:35:30.995Z,8.51
2022-12-23T03:38:01.599Z,8.49
2022-12-23T03:40:41.890Z,8.49
2022-12-23T03:43:14.929Z,8.50
2022-12-23T03:45:53.530Z,8.50
2022-12-23T03:48:26.992Z,8.48
2022-12-23T03:51:00.417Z,8.47
2022-12-23T03:53:34.847Z,8.45
2022-12-23T03:56:09.584Z,8.46
2022-12-23T03:58:47.842Z,8.45
2022-12-23T04:01:43.283Z,8.46
2022-12-23T04:04:19.836Z,8.46
2022-12-23T04:07:00.403Z,8.47
2022-12-23T04:09:31.104Z,8.48
2022-12-23T04:11:58.391Z,8.46
2022-12-23T04:14:25.249Z,8.47
2022-12-23T04:16:55.339Z,8.46
2022-12-23T04:19:22.259Z,8.47
2022-12-23T04:21:49.702Z,8.48
2022-12-23T04:24:16.692Z,8.46
2022-12-23T04:26:47.736Z,8.47
2022-12-23T04:29:15.444Z,8.47
2022-12-23T04:31:44.517Z,8.46
2022-12-23T04:34:18.359Z,8.49
2022-12-23T04:36:47.589Z,8.50
2022-12-23T04:39:14.254Z,8.48
2022-12-23T04:41:40.881Z,8.51
2022-12-23T04:44:08.031Z,8.51
2022-12-23T04:46:35.008Z,8.51
2022-12-23T04:49:07.750Z,8.50
2022-12-23T04:51:34.403Z,8.51
2022-12-23T04:54:01.501Z,8.51
2022-12-23T04:56:28.635Z,8.53
2022-12-23T04:58:55.576Z,8.53
2022-12-23T05:01:22.922Z,8.50
2022-12-23T05:03:49.962Z,8.50
2022-12-23T05:06:16.898Z,8.50
2022-12-23T05:08:43.655Z,8.52
2022-12-23T05:11:10.654Z,8.50
2022-12-23T05:13:37.257Z,8.53
2022-12-23T05:16:04.008Z,8.53
2022-12-23T05:18:31.421Z,8.50
2022-12-23T05:20:58.966Z,8.51
2022-12-23T05:23:26.243Z,8.51
2022-12-23T05:25:55.078Z,8.50
2022-12-23T05:28:23.055Z,8.51
2022-12-23T05:30:57.424Z,8.51
2022-12-23T05:33:27.691Z,8.51
2022-12-23T05:35:58.823Z,8.52
2022-12-23T05:38:26.014Z,8.50
2022-12-23T05:40:55.291Z,8.48
2022-12-23T05:43:22.488Z,8.45
2022-12-23T05:45:50.095Z,8.43
2022-12-23T05:48:19.957Z,8.43
2022-12-23T05:50:50.255Z,8.39
2022-12-23T05:53:18.659Z,8.37
2022-12-23T05:55:47.359Z,8.33
2022-12-23T05:58:15.005Z,8.29
2022-12-23T06:00:41.889Z,8.30
2022-12-23T06:03:09.265Z,8.32
2022-12-23T06:05:37.907Z,8.31
2022-12-23T06:08:05.286Z,8.30
2022-12-23T06:10:33.459Z,8.27
2022-12-23T06:13:00.890Z,8.26
2022-12-23T06:15:32.547Z,8.29
2022-12-23T06:17:59.628Z,8.27
2022-12-23T06:20:30.147Z,8.26
2022-12-23T06:22:58.333Z,8.27
2022-12-23T06:25:27.883Z,8.23
2022-12-23T06:27:55.180Z,8.22
2022-12-23T06:30:25.537Z,8.20
2022-12-23T06:32:52.047Z,8.22
2022-12-23T06:35:19.811Z,8.25
2022-12-23T06:37:46.760Z,8.20
2022-12-23T06:40:14.998Z,8.21
2022-12-23T06:42:42.188Z,8.19
2022-12-23T06:45:11.969Z,8.17
2022-12-23T06:47:39.420Z,8.16
2022-12-23T06:50:10.328Z,8.14
2022-12-23T06:52:37.711Z,8.14
2022-12-23T06:55:05.006Z,8.13
2022-12-23T06:57:31.616Z,8.12
2022-12-23T07:00:04.122Z,8.12
2022-12-23T07:02:31.458Z,8.15
2022-12-23T07:04:58.898Z,8.16
2022-12-23T07:07:27.672Z,8.16
2022-12-23T07:09:55.454Z,8.18
2022-12-23T07:12:22.284Z,8.16
2022-12-23T07:14:51.600Z,8.15
2022-12-23T07:17:18.500Z,8.14
2022-12-23T07:19:45.446Z,8.16
2022-12-23T07:22:12.053Z,8.15
2022-12-23T07:24:39.140Z,8.16
2022-12-23T07:27:05.970Z,8.16
2022-12-23T07:29:32.816Z,8.15
2022-12-23T07:32:02.571Z,8.16
2022-12-23T07:34:29.576Z,8.12
2022-12-23T07:36:56.609Z,8.11
2022-12-23T07:39:23.168Z,8.09
2022-12-23T07:42:03.826Z,8.07
2022-12-23T07:44:38.437Z,8.08
2022-12-23T07:47:05.780Z,8.03
2022-12-23T07:49:33.071Z,8.01
2022-12-23T07:52:02.175Z,8.00
2022-12-23T07:54:28.683Z,7.98
2022-12-23T07:56:56.292Z,7.96
2022-12-23T07:59:25.770Z,8.01
2022-12-23T08:01:53.910Z,8.05
2022-12-23T08:04:21.863Z,8.07
2022-12-23T08:06:48.809Z,8.08
2022-12-23T08:09:16.137Z,8.08
2022-12-23T08:11:45.452Z,8.10
2022-12-23T08:14:12.914Z,8.09
2022-12-23T08:16:44.578Z,8.08
2022-12-23T08:19:11.180Z,8.11
2022-12-23T08:21:38.117Z,8.10
2022-12-23T08:24:06.316Z,8.11
2022-12-23T08:26:33.551Z,8.13
2022-12-23T08:29:00.501Z,8.16
2022-12-23T08:31:32.406Z,8.18
2022-12-23T08:34:00.904Z,8.19
2022-12-23T08:36:31.278Z,8.20
2022-12-23T08:39:00.652Z,8.23
2022-12-23T08:41:30.802Z,8.26
2022-12-23T08:44:00.216Z,8.28
2022-12-23T08:46:27.572Z,8.28
2022-12-23T08:48:55.921Z,8.30
2022-12-23T08:51:24.402Z,8.30
2022-12-23T08:53:57.914Z,8.32
2022-12-23T08:56:32.396Z,8.32
2022-12-23T08:58:59.787Z,8.33
2022-12-23T09:01:29.708Z,8.34
2022-12-23T09:03:56.948Z,8.36
2022-12-23T09:06:29.655Z,8.36
2022-12-23T09:09:00.268Z,8.37
2022-12-23T09:11:29.678Z,8.38
2022-12-23T09:13:56.845Z,8.38
2022-12-23T09:16:24.396Z,8.40
2022-12-23T09:18:51.656Z,8.42
2022-12-23T09:21:21.788Z,8.42
2022-12-23T09:23:49.198Z,8.42
2022-12-23T09:26:27.975Z,8.44
2022-12-23T09:28:55.505Z,8.43
2022-12-23T09:31:23.201Z,8.46
2022-12-23T09:33:54.680Z,8.47
2022-12-23T09:36:22.728Z,8.46
2022-12-23T09:38:55.500Z,8.48
2022-12-23T09:41:36.604Z,8.48
2022-12-23T09:44:12.822Z,8.50
2022-12-23T09:46:53.880Z,8.50
2022-12-23T09:49:25.531Z,8.51
2022-12-23T09:51:57.937Z,8.50
2022-12-23T09:54:29.151Z,8.51
2022-12-23T09:57:35.615Z,8.52
2022-12-23T10:00:11.483Z,8.51
2022-12-23T10:03:07.453Z,8.53
2022-12-23T10:05:56.707Z,8.52
2022-12-23T10:09:00.315Z,8.55
2022-12-23T10:11:32.694Z,8.56
2022-12-23T10:14:11.917Z,8.59
2022-12-23T10:16:47.111Z,8.60
2022-12-23T10:19:20.346Z,8.59
2022-12-23T10:21:52.909Z,8.58
2022-12-23T10:24:20.404Z,8.59
2022-12-23T10:26:53.609Z,8.60
2022-12-23T10:29:25.326Z,8.61
2022-12-23T10:32:12.130Z,8.63
2022-12-23T10:35:15.998Z,8.64
2022-12-23T10:38:00.618Z,8.65
2022-12-23T10:40:43.791Z,8.69
2022-12-23T10:43:45.563Z,8.72
2022-12-23T10:46:24.093Z,8.74
2022-12-23T10:49:36.354Z,8.74
2022-12-23T10:52:12.730Z,8.76
2022-12-23T10:54:43.112Z,8.75
2022-12-23T10:57:10.676Z,8.76
2022-12-23T10:59:40.099Z,8.76
2022-12-23T11:02:14.053Z,8.79
2022-12-23T11:04:52.590Z,8.78
2022-12-23T11:10:23.549Z,8.81
2022-12-23T11:12:53.372Z,8.83
2022-12-23T11:15:32.784Z,8.84
2022-12-23T11:18:03.396Z,8.85
2022-12-23T11:20:30.676Z,8.85
2022-12-23T11:23:01.858Z,8.86
2022-12-23T11:25:31.314Z,8.86
2022-12-23T11:28:00.192Z,8.85
2022-12-23T11:30:30.417Z,8.85
2022-12-23T11:33:00.240Z,8.85
2022-12-23T11:35:34.457Z,8.84
2022-12-23T11:38:03.329Z,8.86
2022-12-23T11:40:34.432Z,8.87
2022-12-23T11:43:04.031Z,8.88
2022-12-23T11:45:35.595Z,8.88
2022-12-23T11:48:05.396Z,8.89
2022-12-23T11:50:38.210Z,8.90
2022-12-23T11:53:22.528Z,8.90
2022-12-23T11:56:04.327Z,8.90
2022-12-23T11:58:40.681Z,8.91
2022-12-23T12:01:19.094Z,8.93
2022-12-23T12:03:52.616Z,8.93
2022-12-23T12:06:20.512Z,8.93
2022-12-23T12:08:53.305Z,8.93
2022-12-23T12:11:36.859Z,8.92
2022-12-23T12:14:06.494Z,8.93
2022-12-23T12:17:04.719Z,8.92
2022-12-23T12:19:59.654Z,8.92
2022-12-23T12:22:34.992Z,8.92
2022-12-23T12:25:16.840Z,8.91
2022-12-23T12:27:52.435Z,8.92
2022-12-23T12:30:21.197Z,8.92
2022-12-23T12:33:02.146Z,8.92
2022-12-23T12:35:53.465Z,8.91
2022-12-23T12:38:36.805Z,8.90
2022-12-23T12:41:37.959Z,8.89
2022-12-23T12:44:35.980Z,8.89
2022-12-23T12:47:55.775Z,8.88
2022-12-23T12:50:29.439Z,8.87
2022-12-23T12:53:03.653Z,8.86
2022-12-23T12:55:34.941Z,8.86
2022-12-23T12:58:04.777Z,8.85
2022-12-23T13:00:48.115Z,8.85
2022-12-23T13:03:30.879Z,8.84
2022-12-23T13:06:09.468Z,8.85
2022-12-23T13:08:46.138Z,8.84
2022-12-23T13:11:28.506Z,8.84
2022-12-23T13:14:08.146Z,8.84
2022-12-23T13:16:46.802Z,8.85
2022-12-23T13:19:31.536Z,8.85
2022-12-23T13:22:20.425Z,8.84
2022-12-23T13:24:53.314Z,8.84
2022-12-23T13:27:57.692Z,8.83
2022-12-23T13:30:34.324Z,8.83
2022-12-23T13:33:07.615Z,8.82
2022-12-23T13:36:06.055Z,8.81
2022-12-23T13:38:59.952Z,8.81
2022-12-23T13:41:49.991Z,8.81
2022-12-23T13:44:18.899Z,8.80
2022-12-23T13:47:22.788Z,8.81
2022-12-23T13:50:17.631Z,8.79
2022-12-23T13:53:01.208Z,8.80
2022-12-23T13:56:06.702Z,8.79
2022-12-23T13:58:33.724Z,8.78
2022-12-23T14:01:06.038Z,8.77
2022-12-23T14:03:37.674Z,8.77
2022-12-23T14:06:26.292Z,8.76
2022-12-23T14:08:58.056Z,8.74
2022-12-23T14:11:29.113Z,8.76
2022-12-23T14:14:08.228Z,8.76
2022-12-23T14:17:05.582Z,8.74
2022-12-23T14:20:23.183Z,8.75
2022-12-23T14:23:01.425Z,8.78
2022-12-23T14:26:02.793Z,8.82
2022-12-23T14:29:08.955Z,8.87
2022-12-23T14:31:49.614Z,8.89
2022-12-23T14:34:19.771Z,8.90
2022-12-23T14:37:15.413Z,8.90
2022-12-23T14:39:43.081Z,8.87
2022-12-23T14:42:16.599Z,8.86
2022-12-23T14:44:46.968Z,8.86
2022-12-23T14:47:33.944Z,8.85
2022-12-23T14:50:34.678Z,8.86
2022-12-23T14:53:03.870Z,8.85
2022-12-23T14:55:33.190Z,8.85
2022-12-23T14:58:17.016Z,8.86
2022-12-23T15:00:50.519Z,8.87
2022-12-23T15:03:19.645Z,8.88
2022-12-23T15:05:46.937Z,8.87
2022-12-23T15:08:38.128Z,8.86
2022-12-23T15:11:08.616Z,8.86
2022-12-23T15:13:38.396Z,8.86
2022-12-23T15:16:09.387Z,8.84
2022-12-23T15:18:36.532Z,8.82
2022-12-23T15:21:11.102Z,8.82
2022-12-23T15:23:38.420Z,8.79
2022-12-23T15:26:07.439Z,8.78
2022-12-23T15:28:40.938Z,8.76
2022-12-23T15:31:24.990Z,8.75
2022-12-23T15:34:02.866Z,8.75
2022-12-23T15:36:39.156Z,8.73
2022-12-23T15:39:19.026Z,8.72
2022-12-23T15:41:47.541Z,8.72
2022-12-23T15:44:34.729Z,8.69
2022-12-23T15:47:02.110Z,8.68
2022-12-23T15:49:29.102Z,8.66
2022-12-23T15:52:10.606Z,8.66
2022-12-23T15:54:46.352Z,8.66
2022-12-23T15:57:19.731Z,8.65
2022-12-23T15:59:46.629Z,8.65
2022-12-23T16:03:00.367Z,8.65
2022-12-23T16:05:46.390Z,8.64
2022-12-23T16:08:13.513Z,8.64
2022-12-23T16:11:06.791Z,8.65
2022-12-23T16:13:34.249Z,8.65
2022-12-23T16:16:28.995Z,8.65
2022-12-23T16:18:58.774Z,8.67
2022-12-23T16:21:31.301Z,8.67
2022-12-23T16:23:59.594Z,8.70
2022-12-23T16:26:26.370Z,8.71
2022-12-23T16:29:00.627Z,8.74
2022-12-23T16:31:28.117Z,8.75
2022-12-23T16:33:57.650Z,8.74
2022-12-23T16:36:31.158Z,8.74
2022-12-23T16:39:07.100Z,8.74
2022-12-23T16:41:34.332Z,8.72
2022-12-23T16:44:01.398Z,8.72
2022-12-23T16:46:32.170Z,8.72
2022-12-23T16:49:01.033Z,8.72
2022-12-23T16:51:30.437Z,8.71
2022-12-23T16:53:58.318Z,8.72
2022-12-23T16:56:28.657Z,8.70
2022-12-23T16:58:56.675Z,8.70
2022-12-23T17:01:25.319Z,8.69
2022-12-23T17:03:52.395Z,8.68
2022-12-23T17:06:22.255Z,8.67
2022-12-23T17:08:50.345Z,8.68
2022-12-23T17:11:22.539Z,8.69
2022-12-23T17:13:49.002Z,8.68
2022-12-23T17:16:21.422Z,8.67
2022-12-23T17:18:49.736Z,8.69
2022-12-23T17:21:28.702Z,8.69
2022-12-23T17:24:13.563Z,8.68
2022-12-23T17:26:41.638Z,8.69
2022-12-23T17:29:14.457Z,8.69
2022-12-23T17:31:43.346Z,8.69
2022-12-23T17:34:15.547Z,8.69
2022-12-23T17:36:49.233Z,8.69
2022-12-23T17:39:16.767Z,8.71
2022-12-23T17:41:43.419Z,8.71
2022-12-23T17:44:14.310Z,8.74
2022-12-23T17:46:43.739Z,8.79
2022-12-23T17:49:12.166Z,8.83
2022-12-23T17:51:40.600Z,8.87
2022-12-23T17:54:11.026Z,8.90
2022-12-23T17:56:38.011Z,8.96
2022-12-23T17:59:06.327Z,9.00
2022-12-23T18:01:34.048Z,9.06
2022-12-23T18:04:00.673Z,9.10
2022-12-23T18:06:28.828Z,9.14
2022-12-23T18:09:02.212Z,9.19
2022-12-23T18:11:39.046Z,9.24
2022-12-23T18:14:07.710Z,9.32
2022-12-23T18:16:34.715Z,9.36
2022-12-23T18:19:01.290Z,9.37
2022-12-23T18:21:28.750Z,9.41
2022-12-23T18:23:59.659Z,9.44
2022-12-23T18:26:26.444Z,9.49
2022-12-23T18:28:54.666Z,9.52
2022-12-23T18:31:27.655Z,9.56
2022-12-23T18:33:54.522Z,9.58
2022-12-23T18:36:33.568Z,9.61
2022-12-23T18:39:01.264Z,9.65
2022-12-23T18:41:28.030Z,9.69
2022-12-23T18:43:55.941Z,9.70
2022-12-23T18:46:23.521Z,9.72
2022-12-23T18:48:51.857Z,9.75
2022-12-23T18:51:21.336Z,9.76
2022-12-23T18:53:49.138Z,9.77
2022-12-23T18:56:21.182Z,9.78
2022-12-23T18:58:48.747Z,9.79
2022-12-23T19:01:17.472Z,9.79
2022-12-23T19:03:46.784Z,9.80
2022-12-23T19:06:15.706Z,9.82
2022-12-23T19:08:44.289Z,9.83
2022-12-23T19:11:21.128Z,9.84
2022-12-23T19:13:51.633Z,9.82
2022-12-23T19:16:25.953Z,9.80
2022-12-23T19:18:54.444Z,9.80
2022-12-23T19:21:23.276Z,9.80
2022-12-23T19:23:50.273Z,9.82
2022-12-23T19:26:17.217Z,9.82
2022-12-23T19:28:43.986Z,9.82
2022-12-23T19:31:15.679Z,9.84
2022-12-23T19:33:45.343Z,9.83
2022-12-23T19:36:14.871Z,9.82
2022-12-23T19:38:43.103Z,9.82
2022-12-23T19:41:13.056Z,9.79
2022-12-23T19:43:40.272Z,9.78
2022-12-23T19:46:09.457Z,9.79
2022-12-23T19:48:39.144Z,9.79
2022-12-23T19:51:11.439Z,9.81
2022-12-23T19:53:39.328Z,9.82
2022-12-23T20:12:00.651Z,9.82
2022-12-23T20:14:32.128Z,9.84
2022-12-23T20:17:01.103Z,9.85
2022-12-23T20:19:27.952Z,9.85
2022-12-23T20:21:56.219Z,9.88
2022-12-23T20:24:23.149Z,9.87
2022-12-23T20:26:49.866Z,9.87
2022-12-23T20:29:17.352Z,9.87
2022-12-23T20:31:46.361Z,9.88
2022-12-23T20:34:17.298Z,9.88
2022-12-23T20:36:44.603Z,9.89
2022-12-23T20:39:11.910Z,9.88
2022-12-23T20:41:43.245Z,9.87
2022-12-23T20:44:33.785Z,9.86
2022-12-23T20:46:57.638Z,9.87
2022-12-23T20:49:24.666Z,9.89
2022-12-23T20:51:51.909Z,9.89
2022-12-23T20:54:24.929Z,9.91
2022-12-23T20:56:56.088Z,9.92
2022-12-23T20:59:23.123Z,9.91
2022-12-23T21:01:50.678Z,9.92
2022-12-23T21:04:17.838Z,9.93
2022-12-23T21:06:44.885Z,9.94
2022-12-23T21:09:13.779Z,9.94
2022-12-23T21:11:43.318Z,9.97
2022-12-23T21:14:11.697Z,9.98
2022-12-23T21:16:38.927Z,10.00
2022-12-23T21:19:07.207Z,9.97
2022-12-23T21:21:34.144Z,9.95
2022-12-23T21:24:04.719Z,9.94
2022-12-23T21:26:33.041Z,9.95
2022-12-23T21:29:10.343Z,9.93
2022-12-23T21:31:40.095Z,9.95
2022-12-23T21:34:12.316Z,9.97
2022-12-23T21:36:39.827Z,9.97
2022-12-23T21:39:07.920Z,9.96
2022-12-23T21:41:36.811Z,9.98
2022-12-23T21:44:03.964Z,9.96
2022-12-23T21:46:30.736Z,9.95
2022-12-23T21:48:58.532Z,9.96
2022-12-23T21:51:31.779Z,9.93
2022-12-23T21:54:03.770Z,9.91
2022-12-23T21:56:33.243Z,9.92
2022-12-23T21:59:11.647Z,9.92
2022-12-23T22:01:38.833Z,9.92
2022-12-23T22:04:07.910Z,9.91
2022-12-23T22:06:37.451Z,9.88
2022-12-23T22:09:06.473Z,9.85
2022-12-23T22:11:37.681Z,9.83
2022-12-23T22:14:07.410Z,9.80
2022-12-23T22:16:37.942Z,9.77
2022-12-23T22:19:09.802Z,9.73
2022-12-23T22:21:37.294Z,9.66
2022-12-23T22:24:04.591Z,9.61
2022-12-23T22:26:32.940Z,9.56
2022-12-23T22:29:02.887Z,9.49
2022-12-23T22:31:50.537Z,9.45
2022-12-23T22:34:22.747Z,9.43
2022-12-23T22:36:50.211Z,9.42
2022-12-23T22:39:22.024Z,9.41
2022-12-23T22:41:52.329Z,9.40
2022-12-23T22:44:20.536Z,9.43
2022-12-23T22:46:47.271Z,9.44
2022-12-23T22:49:17.927Z,9.47
2022-12-23T22:51:44.913Z,9.47
2022-12-23T22:54:14.438Z,9.44
2022-12-23T22:56:44.279Z,9.43
2022-12-23T22:59:21.071Z,9.41
2022-12-23T23:01:48.783Z,9.39
2022-12-23T23:04:15.586Z,9.39
2022-12-23T23:06:42.637Z,9.37
2022-12-23T23:09:16.028Z,9.41
2022-12-23T23:11:44.365Z,9.47
2022-12-23T23:14:11.529Z,9.48
2022-12-23T23:16:40.233Z,9.47
2022-12-23T23:19:09.401Z,9.49
2022-12-23T23:21:37.755Z,9.48
2022-12-23T23:24:05.349Z,9.48
2022-12-23T23:26:31.968Z,9.48
2022-12-23T23:28:58.586Z,9.48
2022-12-23T23:31:41.959Z,9.45
2022-12-23T23:34:09.998Z,9.49
2022-12-23T23:36:36.893Z,9.47
2022-12-23T23:39:03.570Z,9.51
2022-12-23T23:41:30.289Z,9.50
2022-12-23T23:43:57.751Z,9.52
2022-12-23T23:46:24.874Z,9.49
2022-12-23T23:48:54.741Z,9.52
2022-12-23T23:51:21.841Z,9.51
2022-12-23T23:53:52.936Z,9.48
2022-12-23T23:56:25.333Z,9.47
2022-12-23T23:58:53.442Z,9.46
